createdAt,value
2023-02-04T00:02:52.578Z,90.85
2023-02-04T00:07:54.030Z,90.37
2023-02-04T00:12:55.464Z,90.94
2023-02-04T00:17:57.294Z,90.60
2023-02-04T00:22:58.854Z,90.42
2023-02-04T00:28:00.302Z,91.18
2023-02-04T00:33:01.743Z,91.30
2023-02-04T00:38:04.281Z,91.42
2023-02-04T00:43:05.834Z,91.38
2023-02-04T00:48:07.263Z,91.74
2023-02-04T00:53:09.367Z,92.22
2023-02-04T00:58:10.861Z,92.71
2023-02-04T01:03:12.313Z,93.08
2023-02-04T01:08:17.186Z,93.24
2023-02-04T01:13:18.596Z,94.30
2023-02-04T01:18:20.004Z,93.21
2023-02-04T01:23:21.414Z,94.23
2023-02-04T01:28:22.959Z,94.15
2023-02-04T01:33:24.410Z,94.16
2023-02-04T01:38:25.973Z,94.59
2023-02-04T01:43:27.774Z,95.18
2023-02-04T01:48:31.570Z,95.45
2023-02-04T01:53:35.785Z,95.69
2023-02-04T01:58:37.209Z,96.51
2023-02-04T02:03:40.082Z,96.86
2023-02-04T02:08:41.491Z,97.31
2023-02-04T02:13:42.900Z,97.04
2023-02-04T02:18:45.161Z,98.52
2023-02-04T02:23:52.833Z,98.41
2023-02-04T02:28:54.954Z,97.98
2023-02-04T02:33:56.398Z,99.38
2023-02-04T02:38:59.994Z,99.92
2023-02-04T02:44:02.839Z,99.67
2023-02-04T02:49:05.011Z,99.85
2023-02-04T02:54:06.531Z,99.96
2023-02-04T02:59:13.867Z,100.00
2023-02-04T03:04:19.070Z,99.93
2023-02-04T03:09:20.776Z,100.00
2023-02-04T03:14:25.184Z,100.00
2023-02-04T03:19:27.534Z,100.00
2023-02-04T03:24:30.559Z,100.00
2023-02-04T03:29:33.557Z,100.00
2023-02-04T03:34:35.031Z,100.00
2023-02-04T03:39:36.571Z,100.00
2023-02-04T03:44:38.116Z,100.00
2023-02-04T03:49:39.641Z,100.00
2023-02-04T03:54:41.122Z,100.00
2023-02-04T03:59:42.723Z,100.00
2023-02-04T04:04:44.246Z,100.00
2023-02-04T04:09:45.724Z,100.00
2023-02-04T04:14:47.180Z,100.00
2023-02-04T04:19:49.513Z,100.00
2023-02-04T04:24:51.046Z,100.00
2023-02-04T04:29:52.592Z,100.00
2023-02-04T04:34:54.150Z,100.00
2023-02-04T04:39:55.622Z,100.00
2023-02-04T04:44:57.136Z,100.00
2023-02-04T04:49:58.654Z,100.00
2023-02-04T04:55:00.097Z,100.00
2023-02-04T05:00:01.618Z,100.00
2023-02-04T05:05:03.098Z,100.00
2023-02-04T05:10:05.792Z,100.00
2023-02-04T05:15:07.858Z,100.00
2023-02-04T05:20:09.794Z,100.00
2023-02-04T05:25:11.300Z,100.00
2023-02-04T05:30:13.945Z,100.00
2023-02-04T05:35:15.786Z,100.00
2023-02-04T05:40:17.407Z,100.00
2023-02-04T05:45:19.063Z,100.00
2023-02-04T05:50:20.534Z,100.00
2023-02-04T05:55:21.996Z,100.00
2023-02-04T06:00:23.586Z,100.00
2023-02-04T06:05:25.175Z,100.00
2023-02-04T06:10:26.778Z,100.00
2023-02-04T06:15:28.329Z,100.00
2023-02-04T06:20:30.168Z,100.00
2023-02-04T06:25:31.834Z,100.00
2023-02-04T06:30:33.673Z,100.00
2023-02-04T06:35:35.323Z,100.00
2023-02-04T06:40:36.760Z,100.00
2023-02-04T06:45:38.204Z,100.00
2023-02-04T06:50:39.721Z,100.00
2023-02-04T06:55:41.285Z,100.00
2023-02-04T07:00:42.764Z,100.00
2023-02-04T07:05:44.299Z,100.00
2023-02-04T07:10:45.816Z,100.00
2023-02-04T07:15:47.298Z,100.00
2023-02-04T07:20:48.815Z,100.00
2023-02-04T07:25:50.466Z,100.00
2023-02-04T07:30:52.169Z,100.00
2023-02-04T07:35:53.686Z,100.00
2023-02-04T07:40:55.133Z,100.00
2023-02-04T07:45:57.034Z,100.00
2023-02-04T07:50:58.545Z,100.00
2023-02-04T07:56:00.072Z,100.00
2023-02-04T08:01:01.775Z,100.00
2023-02-04T08:06:03.222Z,100.00
2023-02-04T08:11:04.848Z,100.00
2023-02-04T08:16:06.513Z,100.00
2023-02-04T08:21:08.034Z,100.00
2023-02-04T08:26:11.635Z,100.00
2023-02-04T08:31:13.249Z,100.00
2023-02-04T08:36:14.744Z,100.00
2023-02-04T08:41:16.255Z,100.00
2023-02-04T08:46:17.781Z,100.00
2023-02-04T08:51:19.567Z,100.00
2023-02-04T08:56:21.071Z,100.00
2023-02-04T09:01:22.617Z,100.00
2023-02-04T09:06:24.121Z,100.00
2023-02-04T09:11:25.848Z,100.00
2023-02-04T09:16:27.406Z,100.00
2023-02-04T09:21:29.168Z,100.00
2023-02-04T09:26:30.623Z,100.00
2023-02-04T09:31:32.179Z,100.00
2023-02-04T09:36:37.792Z,100.00
2023-02-04T09:41:40.581Z,100.00
2023-02-04T09:46:48.502Z,100.00
2023-02-04T09:51:50.800Z,100.00
2023-02-04T09:56:52.580Z,100.00
2023-02-04T10:02:02.638Z,100.00
2023-02-04T10:07:12.192Z,100.00
2023-02-04T10:12:14.461Z,100.00
2023-02-04T10:17:20.720Z,98.44
2023-02-04T10:22:22.588Z,95.43
2023-02-04T10:27:24.044Z,97.15
2023-02-04T10:32:31.874Z,97.02
2023-02-04T10:37:33.425Z,97.70
2023-02-04T10:42:34.865Z,96.45
2023-02-04T10:47:36.368Z,94.57
2023-02-04T10:52:47.255Z,93.44
2023-02-04T10:57:51.839Z,92.89
2023-02-04T11:03:10.683Z,91.86
2023-02-04T11:08:23.231Z,91.69
2023-02-04T11:13:43.177Z,90.53
2023-02-04T11:19:03.032Z,90.76
2023-02-04T11:24:13.752Z,88.88
2023-02-04T11:29:37.998Z,87.58
2023-02-04T11:34:52.946Z,88.93
2023-02-04T11:39:58.624Z,88.53
2023-02-04T11:45:08.378Z,86.76
2023-02-04T11:50:22.241Z,87.13
2023-02-04T11:55:24.489Z,86.38
2023-02-04T12:00:29.925Z,84.93
2023-02-04T12:05:41.821Z,85.77
2023-02-04T12:11:05.502Z,84.59
2023-02-04T12:16:07.889Z,85.29
2023-02-04T12:21:09.500Z,84.72
2023-02-04T12:26:12.214Z,82.69
2023-02-04T12:31:13.802Z,81.35
2023-02-04T12:36:15.612Z,81.45
2023-02-04T12:41:17.045Z,80.07
2023-02-04T12:46:18.534Z,78.53
2023-02-04T12:51:21.063Z,77.86
2023-02-04T12:56:24.122Z,77.87
2023-02-04T13:01:25.619Z,76.14
2023-02-04T13:06:27.168Z,79.32
2023-02-04T13:11:28.600Z,80.17
2023-02-04T13:16:30.176Z,76.82
2023-02-04T13:21:31.947Z,76.46
2023-02-04T13:26:33.474Z,78.63
2023-02-04T13:31:35.056Z,75.10
2023-02-04T13:36:36.632Z,74.80
2023-02-04T13:41:38.209Z,74.04
2023-02-04T13:46:39.767Z,74.35
2023-02-04T13:51:42.278Z,73.00
2023-02-04T13:56:43.788Z,72.49
2023-02-04T14:01:45.324Z,72.08
2023-02-04T14:06:46.792Z,70.66
2023-02-04T14:11:48.336Z,69.84
2023-02-04T14:16:49.813Z,71.09
2023-02-04T14:21:53.369Z,71.15
2023-02-04T14:26:56.120Z,71.05
2023-02-04T14:31:57.588Z,70.77
2023-02-04T14:36:59.100Z,68.89
2023-02-04T14:42:00.665Z,70.64
2023-02-04T14:47:02.127Z,71.27
2023-02-04T14:52:04.467Z,72.65
2023-02-04T14:57:06.287Z,72.66
2023-02-04T15:02:09.099Z,74.42
2023-02-04T15:07:11.802Z,75.52
2023-02-04T15:12:13.312Z,76.77
2023-02-04T15:17:14.830Z,79.76
2023-02-04T15:22:16.322Z,77.79
2023-02-04T15:27:17.777Z,82.01
2023-02-04T15:32:20.277Z,79.33
2023-02-04T15:37:21.872Z,80.59
2023-02-04T15:42:23.409Z,81.48
2023-02-04T15:47:24.868Z,89.81
2023-02-04T15:52:27.868Z,80.51
2023-02-04T15:57:30.582Z,79.22
2023-02-04T16:02:32.161Z,78.23
2023-02-04T16:07:33.876Z,77.84
2023-02-04T16:12:35.325Z,79.00
2023-02-04T16:17:36.859Z,82.16
2023-02-04T16:22:38.299Z,84.55
2023-02-04T16:27:39.772Z,79.46
2023-02-04T16:32:41.496Z,76.95
2023-02-04T16:37:43.042Z,81.03
2023-02-04T16:42:44.514Z,78.28
2023-02-04T16:47:45.922Z,82.12
2023-02-04T16:52:47.363Z,78.17
2023-02-04T16:57:48.796Z,80.97
2023-02-04T17:02:50.407Z,78.67
2023-02-04T17:07:51.991Z,78.68
2023-02-04T17:12:53.493Z,79.36
2023-02-04T17:17:55.029Z,79.66
2023-02-04T17:22:56.515Z,79.75
2023-02-04T17:27:58.072Z,79.88
2023-02-04T17:32:59.545Z,80.40
2023-02-04T17:38:01.269Z,80.91
2023-02-04T17:43:03.780Z,80.91
2023-02-04T17:48:05.452Z,79.35
2023-02-04T17:53:08.075Z,80.70
2023-02-04T17:58:15.378Z,80.42
2023-02-04T18:03:20.974Z,80.73
2023-02-04T18:08:32.831Z,81.55
2023-02-04T18:13:34.379Z,81.98
2023-02-04T18:18:40.443Z,81.91
2023-02-04T18:23:42.864Z,81.91
2023-02-04T18:28:47.842Z,83.24
2023-02-04T18:33:49.470Z,83.62
2023-02-04T18:38:51.034Z,83.81
2023-02-04T18:44:02.178Z,85.66
2023-02-04T18:49:26.673Z,87.38
2023-02-04T18:54:36.365Z,88.74
2023-02-04T18:59:38.013Z,87.72
2023-02-04T19:04:39.447Z,87.34
2023-02-04T19:09:40.996Z,87.94
2023-02-04T19:14:45.700Z,88.16
2023-02-04T19:20:02.095Z,88.34
2023-02-04T19:25:32.512Z,88.93
2023-02-04T19:30:57.204Z,88.86
2023-02-04T19:36:06.832Z,88.13
2023-02-04T19:41:28.170Z,88.43
2023-02-04T19:46:29.633Z,88.56
2023-02-04T19:51:31.730Z,90.40
2023-02-04T19:56:39.014Z,92.50
2023-02-04T20:01:40.521Z,92.83
2023-02-04T20:06:43.663Z,91.97
2023-02-04T20:12:08.130Z,91.50
2023-02-04T20:17:15.300Z,92.66
2023-02-04T20:22:23.438Z,93.49
2023-02-04T20:27:36.414Z,92.19
2023-02-04T20:32:43.986Z,92.64
2023-02-04T20:37:50.937Z,93.54
2023-02-04T20:43:16.076Z,92.83
2023-02-04T20:48:17.516Z,93.55
2023-02-04T20:53:38.914Z,93.33
2023-02-04T20:58:43.503Z,94.25
2023-02-04T21:03:45.746Z,93.54
2023-02-04T21:08:49.834Z,94.36
2023-02-04T21:13:52.827Z,95.46
2023-02-04T21:18:54.677Z,94.65
2023-02-04T21:23:56.272Z,95.17
2023-02-04T21:28:57.733Z,93.70
2023-02-04T21:33:59.344Z,94.83
2023-02-04T21:39:00.828Z,94.58
2023-02-04T21:44:02.264Z,94.31
2023-02-04T21:49:05.154Z,94.15
2023-02-04T21:54:06.747Z,94.88
2023-02-04T21:59:08.218Z,95.31
2023-02-04T22:04:09.671Z,94.89
2023-02-04T22:09:11.116Z,97.24
2023-02-04T22:14:12.795Z,99.09
2023-02-04T22:19:14.328Z,100.00
2023-02-04T22:24:15.864Z,100.00
2023-02-04T22:29:23.480Z,100.00
2023-02-04T22:34:25.397Z,100.00
2023-02-04T22:39:26.964Z,100.00
2023-02-04T22:44:28.391Z,100.00
2023-02-04T22:49:32.431Z,100.00
2023-02-04T22:54:34.156Z,100.00
2023-02-04T22:59:35.855Z,100.00
2023-02-04T23:04:37.336Z,100.00
2023-02-04T23:09:39.108Z,100.00
2023-02-04T23:14:45.914Z,100.00
2023-02-04T23:19:47.478Z,100.00
2023-02-04T23:24:49.614Z,100.00
2023-02-04T23:29:51.050Z,100.00
2023-02-04T23:34:52.596Z,100.00
2023-02-04T23:39:54.157Z,100.00
2023-02-04T23:44:55.642Z,100.00
2023-02-04T23:49:57.086Z,100.00
2023-02-04T23:54:58.552Z,100.00
2023-02-04T23:59:59.974Z,100.00
